Terminal Aerodrome Forecast
Issued by NWS

Home | Current Version | Previous Version | Text Only | Print | Product List | Glossary On
Versions: 1 2 3 4 5 6 7 8 9 10 11 12
000
FTUS45 KABQ 010500
TAFLVS
TAF
KLVS 010520Z 0106/0206 24008KT P6SM SKC
     FM011700 25010G20KT P6SM FEW090
      TEMPO 0121/0201 24015G25KT
     FM020200 25008KT P6SM SKC=

USA.gov is the U.S. government's official web portal to all federal, state and local government web resources and services.